sensor_id;sensor_type;location;lat;lon;timestamp;pressure;altitude;pressure_sealevel;temperature
20058;BMP180;10189;49.546;7.906;2023-09-18T00:00:26;97416.00;;;20.90
20058;BMP180;10189;49.546;7.906;2023-09-18T00:02:52;97411.00;;;20.90
20058;BMP180;10189;49.546;7.906;2023-09-18T00:05:18;97408.00;;;20.80
20058;BMP180;10189;49.546;7.906;2023-09-18T00:07:44;97404.00;;;20.80
20058;BMP180;10189;49.546;7.906;2023-09-18T00:10:13;97402.00;;;20.90
20058;BMP180;10189;49.546;7.906;2023-09-18T00:12:40;97387.00;;;20.90
20058;BMP180;10189;49.546;7.906;2023-09-18T00:15:07;97387.00;;;21.00
20058;BMP180;10189;49.546;7.906;2023-09-18T00:17:36;97385.00;;;21.10
20058;BMP180;10189;49.546;7.906;2023-09-18T00:20:02;97387.00;;;21.00
20058;BMP180;10189;49.546;7.906;2023-09-18T00:22:34;97391.00;;;21.00
20058;BMP180;10189;49.546;7.906;2023-09-18T00:25:00;97392.00;;;20.90
20058;BMP180;10189;49.546;7.906;2023-09-18T00:27:30;97386.00;;;20.80
20058;BMP180;10189;49.546;7.906;2023-09-18T00:29:55;97386.00;;;20.70
20058;BMP180;10189;49.546;7.906;2023-09-18T00:32:21;97381.00;;;20.70
20058;BMP180;10189;49.546;7.906;2023-09-18T00:34:47;97376.00;;;20.60
20058;BMP180;10189;49.546;7.906;2023-09-18T00:37:13;97378.00;;;20.60
20058;BMP180;10189;49.546;7.906;2023-09-18T00:39:40;97379.00;;;20.50
20058;BMP180;10189;49.546;7.906;2023-09-18T00:42:06;97371.00;;;20.50
20058;BMP180;10189;49.546;7.906;2023-09-18T00:44:32;97374.00;;;20.40
20058;BMP180;10189;49.546;7.906;2023-09-18T00:46:58;97382.00;;;20.40
20058;BMP180;10189;49.546;7.906;2023-09-18T00:49:25;97368.00;;;20.40
20058;BMP180;10189;49.546;7.906;2023-09-18T00:51:51;97371.00;;;20.40
20058;BMP180;10189;49.546;7.906;2023-09-18T00:54:19;97386.00;;;20.40
20058;BMP180;10189;49.546;7.906;2023-09-18T00:56:47;97380.00;;;20.50
20058;BMP180;10189;49.546;7.906;2023-09-18T00:59:14;97378.00;;;20.50
20058;BMP180;10189;49.546;7.906;2023-09-18T01:01:42;97378.00;;;20.50
20058;BMP180;10189;49.546;7.906;2023-09-18T01:04:12;97389.00;;;20.60
20058;BMP180;10189;49.546;7.906;2023-09-18T01:06:39;97391.00;;;20.60
20058;BMP180;10189;49.546;7.906;2023-09-18T01:09:05;97402.00;;;20.70
20058;BMP180;10189;49.546;7.906;2023-09-18T01:12:18;97395.00;;;20.80
20058;BMP180;10189;49.546;7.906;2023-09-18T01:17:43;97412.00;;;21.00
20058;BMP180;10189;49.546;7.906;2023-09-18T01:20:11;97391.00;;;21.40
20058;BMP180;10189;49.546;7.906;2023-09-18T01:22:37;97403.00;;;21.60
20058;BMP180;10189;49.546;7.906;2023-09-18T01:25:03;97381.00;;;21.80
20058;BMP180;10189;49.546;7.906;2023-09-18T01:27:30;97386.00;;;22.00
20058;BMP180;10189;49.546;7.906;2023-09-18T01:29:55;97402.00;;;22.20
20058;BMP180;10189;49.546;7.906;2023-09-18T01:32:26;97393.00;;;22.30
20058;BMP180;10189;49.546;7.906;2023-09-18T01:34:57;97405.00;;;22.60
20058;BMP180;10189;49.546;7.906;2023-09-18T01:37:26;97392.00;;;22.60
20058;BMP180;10189;49.546;7.906;2023-09-18T01:39:53;97409.00;;;22.70
20058;BMP180;10189;49.546;7.906;2023-09-18T01:42:20;97407.00;;;22.80
20058;BMP180;10189;49.546;7.906;2023-09-18T01:44:47;97421.00;;;22.40
20058;BMP180;10189;49.546;7.906;2023-09-18T01:47:18;97420.00;;;21.50
20058;BMP180;10189;49.546;7.906;2023-09-18T01:49:44;97418.00;;;21.20
20058;BMP180;10189;49.546;7.906;2023-09-18T01:52:12;97420.00;;;21.10
20058;BMP180;10189;49.546;7.906;2023-09-18T01:54:38;97429.00;;;21.00
20058;BMP180;10189;49.546;7.906;2023-09-18T01:57:04;97415.00;;;21.00
20058;BMP180;10189;49.546;7.906;2023-09-18T01:59:30;97427.00;;;20.90
20058;BMP180;10189;49.546;7.906;2023-09-18T02:01:56;97416.00;;;20.80
20058;BMP180;10189;49.546;7.906;2023-09-18T02:04:23;97417.00;;;20.70
20058;BMP180;10189;49.546;7.906;2023-09-18T02:06:50;97423.00;;;20.70
20058;BMP180;10189;49.546;7.906;2023-09-18T02:09:17;97418.00;;;20.60
20058;BMP180;10189;49.546;7.906;2023-09-18T02:11:46;97417.00;;;20.50
20058;BMP180;10189;49.546;7.906;2023-09-18T02:14:13;97408.00;;;20.60
20058;BMP180;10189;49.546;7.906;2023-09-18T02:16:41;97419.00;;;20.60
20058;BMP180;10189;49.546;7.906;2023-09-18T02:19:09;97419.00;;;20.60
20058;BMP180;10189;49.546;7.906;2023-09-18T02:21:37;97417.00;;;20.50
20058;BMP180;10189;49.546;7.906;2023-09-18T02:24:05;97409.00;;;20.60
20058;BMP180;10189;49.546;7.906;2023-09-18T02:26:31;97398.00;;;20.60
20058;BMP180;10189;49.546;7.906;2023-09-18T02:29:01;97390.00;;;20.70
20058;BMP180;10189;49.546;7.906;2023-09-18T02:31:27;97390.00;;;20.80
20058;BMP180;10189;49.546;7.906;2023-09-18T02:33:53;97374.00;;;20.80
20058;BMP180;10189;49.546;7.906;2023-09-18T02:36:19;97375.00;;;20.90
20058;BMP180;10189;49.546;7.906;2023-09-18T02:38:48;97362.00;;;21.00
20058;BMP180;10189;49.546;7.906;2023-09-18T02:41:14;97351.00;;;21.20
20058;BMP180;10189;49.546;7.906;2023-09-18T02:43:40;97350.00;;;21.40
20058;BMP180;10189;49.546;7.906;2023-09-18T02:46:07;97349.00;;;21.50
20058;BMP180;10189;49.546;7.906;2023-09-18T02:48:33;97336.00;;;21.70
20058;BMP180;10189;49.546;7.906;2023-09-18T02:51:01;97338.00;;;21.80
20058;BMP180;10189;49.546;7.906;2023-09-18T02:53:28;97334.00;;;21.90
20058;BMP180;10189;49.546;7.906;2023-09-18T02:55:57;97328.00;;;21.80
20058;BMP180;10189;49.546;7.906;2023-09-18T02:58:24;97333.00;;;21.80
20058;BMP180;10189;49.546;7.906;2023-09-18T03:00:57;97333.00;;;21.90
20058;BMP180;10189;49.546;7.906;2023-09-18T03:03:28;97347.00;;;21.90
20058;BMP180;10189;49.546;7.906;2023-09-18T03:06:03;97356.00;;;21.90
20058;BMP180;10189;49.546;7.906;2023-09-18T03:08:30;97359.00;;;22.00
20058;BMP180;10189;49.546;7.906;2023-09-18T03:10:57;97370.00;;;21.90
20058;BMP180;10189;49.546;7.906;2023-09-18T03:13:23;97376.00;;;21.90
20058;BMP180;10189;49.546;7.906;2023-09-18T03:15:50;97379.00;;;21.80
20058;BMP180;10189;49.546;7.906;2023-09-18T03:18:16;97375.00;;;21.60
20058;BMP180;10189;49.546;7.906;2023-09-18T03:20:42;97385.00;;;21.60
20058;BMP180;10189;49.546;7.906;2023-09-18T03:23:08;97378.00;;;21.60
20058;BMP180;10189;49.546;7.906;2023-09-18T03:25:36;97372.00;;;21.50
20058;BMP180;10189;49.546;7.906;2023-09-18T03:28:03;97377.00;;;21.50
20058;BMP180;10189;49.546;7.906;2023-09-18T03:30:32;97380.00;;;21.60
20058;BMP180;10189;49.546;7.906;2023-09-18T03:32:58;97382.00;;;21.60
20058;BMP180;10189;49.546;7.906;2023-09-18T03:35:30;97378.00;;;21.60
20058;BMP180;10189;49.546;7.906;2023-09-18T03:37:56;97384.00;;;21.60
20058;BMP180;10189;49.546;7.906;2023-09-18T03:40:22;97375.00;;;21.70
20058;BMP180;10189;49.546;7.906;2023-09-18T03:42:49;97378.00;;;21.80
20058;BMP180;10189;49.546;7.906;2023-09-18T03:45:16;97365.00;;;21.90
20058;BMP180;10189;49.546;7.906;2023-09-18T03:47:45;97363.00;;;21.90
20058;BMP180;10189;49.546;7.906;2023-09-18T03:50:12;97359.00;;;22.00
20058;BMP180;10189;49.546;7.906;2023-09-18T03:52:39;97349.00;;;22.10
20058;BMP180;10189;49.546;7.906;2023-09-18T03:55:07;97350.00;;;22.10
20058;BMP180;10189;49.546;7.906;2023-09-18T03:57:34;97364.00;;;22.10
20058;BMP180;10189;49.546;7.906;2023-09-18T04:00:00;97365.00;;;22.20
20058;BMP180;10189;49.546;7.906;2023-09-18T04:02:26;97354.00;;;22.10
20058;BMP180;10189;49.546;7.906;2023-09-18T04:04:53;97352.00;;;22.10
20058;BMP180;10189;49.546;7.906;2023-09-18T04:07:20;97338.00;;;22.20
20058;BMP180;10189;49.546;7.906;2023-09-18T04:09:46;97334.00;;;22.10
20058;BMP180;10189;49.546;7.906;2023-09-18T04:12:12;97316.00;;;22.10
20058;BMP180;10189;49.546;7.906;2023-09-18T04:14:39;97319.00;;;22.00
20058;BMP180;10189;49.546;7.906;2023-09-18T04:17:05;97312.00;;;21.90
20058;BMP180;10189;49.546;7.906;2023-09-18T04:19:31;97294.00;;;21.90
20058;BMP180;10189;49.546;7.906;2023-09-18T04:21:57;97295.00;;;21.90
20058;BMP180;10189;49.546;7.906;2023-09-18T04:24:23;97304.00;;;21.70
20058;BMP180;10189;49.546;7.906;2023-09-18T04:26:49;97306.00;;;21.60
20058;BMP180;10189;49.546;7.906;2023-09-18T04:29:19;97310.00;;;21.50
20058;BMP180;10189;49.546;7.906;2023-09-18T04:31:46;97321.00;;;21.40
20058;BMP180;10189;49.546;7.906;2023-09-18T04:34:13;97308.00;;;21.40
20058;BMP180;10189;49.546;7.906;2023-09-18T04:36:40;97319.00;;;21.30
20058;BMP180;10189;49.546;7.906;2023-09-18T04:39:06;97324.00;;;21.20
20058;BMP180;10189;49.546;7.906;2023-09-18T04:41:34;97325.00;;;21.20
20058;BMP180;10189;49.546;7.906;2023-09-18T04:44:02;97345.00;;;21.20
20058;BMP180;10189;49.546;7.906;2023-09-18T04:46:28;97342.00;;;21.30
20058;BMP180;10189;49.546;7.906;2023-09-18T04:48:56;97341.00;;;21.30
20058;BMP180;10189;49.546;7.906;2023-09-18T04:51:21;97340.00;;;21.20
20058;BMP180;10189;49.546;7.906;2023-09-18T04:53:47;97363.00;;;21.20
20058;BMP180;10189;49.546;7.906;2023-09-18T04:56:13;97372.00;;;21.20
20058;BMP180;10189;49.546;7.906;2023-09-18T04:58:40;97351.00;;;21.20
20058;BMP180;10189;49.546;7.906;2023-09-18T05:01:06;97349.00;;;21.30
20058;BMP180;10189;49.546;7.906;2023-09-18T05:03:34;97362.00;;;21.20
20058;BMP180;10189;49.546;7.906;2023-09-18T05:06:01;97365.00;;;21.30
20058;BMP180;10189;49.546;7.906;2023-09-18T05:08:26;97376.00;;;21.20
20058;BMP180;10189;49.546;7.906;2023-09-18T05:10:52;97380.00;;;21.10
20058;BMP180;10189;49.546;7.906;2023-09-18T05:13:18;97392.00;;;21.10
20058;BMP180;10189;49.546;7.906;2023-09-18T05:15:44;97377.00;;;21.10
20058;BMP180;10189;49.546;7.906;2023-09-18T05:18:10;97369.00;;;21.10
20058;BMP180;10189;49.546;7.906;2023-09-18T05:20:36;97375.00;;;21.10
20058;BMP180;10189;49.546;7.906;2023-09-18T05:23:02;97373.00;;;21.00
20058;BMP180;10189;49.546;7.906;2023-09-18T05:25:29;97361.00;;;21.10
20058;BMP180;10189;49.546;7.906;2023-09-18T05:27:59;97336.00;;;21.00
20058;BMP180;10189;49.546;7.906;2023-09-18T05:30:29;97346.00;;;21.00
20058;BMP180;10189;49.546;7.906;2023-09-18T05:32:57;97352.00;;;21.00
20058;BMP180;10189;49.546;7.906;2023-09-18T05:35:33;97330.00;;;20.80
20058;BMP180;10189;49.546;7.906;2023-09-18T05:37:59;97336.00;;;20.90
20058;BMP180;10189;49.546;7.906;2023-09-18T05:40:26;97349.00;;;20.80
20058;BMP180;10189;49.546;7.906;2023-09-18T05:42:56;97356.00;;;20.70
20058;BMP180;10189;49.546;7.906;2023-09-18T05:45:22;97352.00;;;20.80
20058;BMP180;10189;49.546;7.906;2023-09-18T05:47:49;97362.00;;;20.70
20058;BMP180;10189;49.546;7.906;2023-09-18T05:50:16;97357.00;;;20.70
20058;BMP180;10189;49.546;7.906;2023-09-18T05:52:44;97373.00;;;20.70
20058;BMP180;10189;49.546;7.906;2023-09-18T05:55:10;97371.00;;;20.90
20058;BMP180;10189;49.546;7.906;2023-09-18T05:57:37;97368.00;;;20.90
20058;BMP180;10189;49.546;7.906;2023-09-18T06:00:04;97372.00;;;20.90
20058;BMP180;10189;49.546;7.906;2023-09-18T06:02:37;97380.00;;;20.90
20058;BMP180;10189;49.546;7.906;2023-09-18T06:05:03;97383.00;;;20.80
20058;BMP180;10189;49.546;7.906;2023-09-18T06:07:31;97385.00;;;20.90
20058;BMP180;10189;49.546;7.906;2023-09-18T06:09:57;97397.00;;;20.90
20058;BMP180;10189;49.546;7.906;2023-09-18T06:12:24;97404.00;;;20.90
20058;BMP180;10189;49.546;7.906;2023-09-18T06:14:51;97412.00;;;21.00
20058;BMP180;10189;49.546;7.906;2023-09-18T06:17:18;97399.00;;;21.00
20058;BMP180;10189;49.546;7.906;2023-09-18T06:19:44;97397.00;;;20.90
20058;BMP180;10189;49.546;7.906;2023-09-18T06:22:11;97414.00;;;21.00
20058;BMP180;10189;49.546;7.906;2023-09-18T06:24:38;97418.00;;;21.00
20058;BMP180;10189;49.546;7.906;2023-09-18T06:27:04;97424.00;;;21.00
20058;BMP180;10189;49.546;7.906;2023-09-18T06:29:34;97412.00;;;21.10
20058;BMP180;10189;49.546;7.906;2023-09-18T06:32:01;97420.00;;;21.10
20058;BMP180;10189;49.546;7.906;2023-09-18T06:34:27;97427.00;;;21.10
20058;BMP180;10189;49.546;7.906;2023-09-18T06:36:54;97426.00;;;21.10
20058;BMP180;10189;49.546;7.906;2023-09-18T06:39:20;97436.00;;;21.00
20058;BMP180;10189;49.546;7.906;2023-09-18T06:41:48;97429.00;;;21.10
20058;BMP180;10189;49.546;7.906;2023-09-18T06:44:14;97433.00;;;21.00
20058;BMP180;10189;49.546;7.906;2023-09-18T06:46:39;97430.00;;;21.10
20058;BMP180;10189;49.546;7.906;2023-09-18T06:49:06;97422.00;;;21.10
20058;BMP180;10189;49.546;7.906;2023-09-18T06:51:32;97424.00;;;21.10
20058;BMP180;10189;49.546;7.906;2023-09-18T06:53:58;97433.00;;;21.10
20058;BMP180;10189;49.546;7.906;2023-09-18T06:56:27;97447.00;;;21.10
20058;BMP180;10189;49.546;7.906;2023-09-18T06:58:52;97437.00;;;21.00
20058;BMP180;10189;49.546;7.906;2023-09-18T07:01:19;97445.00;;;21.10
20058;BMP180;10189;49.546;7.906;2023-09-18T07:03:48;97432.00;;;21.10
20058;BMP180;10189;49.546;7.906;2023-09-18T07:06:14;97438.00;;;21.10
20058;BMP180;10189;49.546;7.906;2023-09-18T07:08:47;97431.00;;;21.30
20058;BMP180;10189;49.546;7.906;2023-09-18T07:11:17;97429.00;;;21.30
20058;BMP180;10189;49.546;7.906;2023-09-18T07:13:44;97434.00;;;21.30
20058;BMP180;10189;49.546;7.906;2023-09-18T07:16:10;97431.00;;;21.30
20058;BMP180;10189;49.546;7.906;2023-09-18T07:18:36;97431.00;;;21.40
20058;BMP180;10189;49.546;7.906;2023-09-18T07:21:02;97443.00;;;21.60
20058;BMP180;10189;49.546;7.906;2023-09-18T07:23:28;97440.00;;;21.60
20058;BMP180;10189;49.546;7.906;2023-09-18T07:25:54;97441.00;;;21.60
20058;BMP180;10189;49.546;7.906;2023-09-18T07:28:20;97437.00;;;21.70
20058;BMP180;10189;49.546;7.906;2023-09-18T07:30:49;97436.00;;;21.80
20058;BMP180;10189;49.546;7.906;2023-09-18T07:33:15;97448.00;;;21.80
20058;BMP180;10189;49.546;7.906;2023-09-18T07:35:50;97444.00;;;21.90
20058;BMP180;10189;49.546;7.906;2023-09-18T07:38:17;97440.00;;;21.90
20058;BMP180;10189;49.546;7.906;2023-09-18T07:40:45;97453.00;;;21.80
20058;BMP180;10189;49.546;7.906;2023-09-18T07:43:13;97452.00;;;22.00
20058;BMP180;10189;49.546;7.906;2023-09-18T07:45:39;97443.00;;;21.90
20058;BMP180;10189;49.546;7.906;2023-09-18T07:48:07;97442.00;;;22.10
20058;BMP180;10189;49.546;7.906;2023-09-18T07:50:36;97450.00;;;22.10
20058;BMP180;10189;49.546;7.906;2023-09-18T07:53:03;97461.00;;;22.20
20058;BMP180;10189;49.546;7.906;2023-09-18T07:55:29;97472.00;;;22.00
20058;BMP180;10189;49.546;7.906;2023-09-18T07:57:56;97465.00;;;22.20
20058;BMP180;10189;49.546;7.906;2023-09-18T08:00:22;97457.00;;;22.20
20058;BMP180;10189;49.546;7.906;2023-09-18T08:02:49;97468.00;;;22.30
20058;BMP180;10189;49.546;7.906;2023-09-18T08:05:16;97469.00;;;22.20
20058;BMP180;10189;49.546;7.906;2023-09-18T08:07:43;97481.00;;;22.40
20058;BMP180;10189;49.546;7.906;2023-09-18T08:10:09;97478.00;;;22.30
20058;BMP180;10189;49.546;7.906;2023-09-18T08:12:36;97483.00;;;22.10
20058;BMP180;10189;49.546;7.906;2023-09-18T08:15:02;97479.00;;;22.20
20058;BMP180;10189;49.546;7.906;2023-09-18T08:17:28;97481.00;;;22.20
20058;BMP180;10189;49.546;7.906;2023-09-18T08:19:54;97462.00;;;22.10
20058;BMP180;10189;49.546;7.906;2023-09-18T08:22:21;97460.00;;;22.10
20058;BMP180;10189;49.546;7.906;2023-09-18T08:24:48;97462.00;;;22.20
20058;BMP180;10189;49.546;7.906;2023-09-18T08:27:14;97465.00;;;22.20
20058;BMP180;10189;49.546;7.906;2023-09-18T08:29:44;97472.00;;;22.20
20058;BMP180;10189;49.546;7.906;2023-09-18T08:32:10;97465.00;;;22.10
20058;BMP180;10189;49.546;7.906;2023-09-18T08:34:36;97479.00;;;22.10
20058;BMP180;10189;49.546;7.906;2023-09-18T08:37:03;97468.00;;;22.10
20058;BMP180;10189;49.546;7.906;2023-09-18T08:39:29;97466.00;;;22.10
20058;BMP180;10189;49.546;7.906;2023-09-18T08:42:05;97467.00;;;22.10
20058;BMP180;10189;49.546;7.906;2023-09-18T08:44:34;97480.00;;;22.10
20058;BMP180;10189;49.546;7.906;2023-09-18T08:47:04;97476.00;;;22.20
20058;BMP180;10189;49.546;7.906;2023-09-18T08:49:31;97453.00;;;22.40
20058;BMP180;10189;49.546;7.906;2023-09-18T08:51:59;97454.00;;;22.60
20058;BMP180;10189;49.546;7.906;2023-09-18T08:54:26;97461.00;;;22.50
20058;BMP180;10189;49.546;7.906;2023-09-18T08:56:54;97468.00;;;22.60
20058;BMP180;10189;49.546;7.906;2023-09-18T08:59:22;97473.00;;;22.40
20058;BMP180;10189;49.546;7.906;2023-09-18T09:01:50;97471.00;;;22.50
20058;BMP180;10189;49.546;7.906;2023-09-18T09:04:19;97472.00;;;22.50
20058;BMP180;10189;49.546;7.906;2023-09-18T09:06:44;97476.00;;;22.40
20058;BMP180;10189;49.546;7.906;2023-09-18T09:09:10;97475.00;;;22.50
20058;BMP180;10189;49.546;7.906;2023-09-18T09:11:39;97488.00;;;22.50
20058;BMP180;10189;49.546;7.906;2023-09-18T09:14:14;97468.00;;;22.50
20058;BMP180;10189;49.546;7.906;2023-09-18T09:16:51;97494.00;;;22.50
20058;BMP180;10189;49.546;7.906;2023-09-18T09:19:18;97505.00;;;22.30
20058;BMP180;10189;49.546;7.906;2023-09-18T09:21:46;97498.00;;;22.30
20058;BMP180;10189;49.546;7.906;2023-09-18T09:24:13;97483.00;;;22.50
20058;BMP180;10189;49.546;7.906;2023-09-18T09:26:41;97490.00;;;22.50
20058;BMP180;10189;49.546;7.906;2023-09-18T09:29:19;97486.00;;;22.80
20058;BMP180;10189;49.546;7.906;2023-09-18T09:31:46;97487.00;;;22.90
20058;BMP180;10189;49.546;7.906;2023-09-18T09:34:25;97481.00;;;23.40
20058;BMP180;10189;49.546;7.906;2023-09-18T09:36:56;97481.00;;;23.40
20058;BMP180;10189;49.546;7.906;2023-09-18T09:39:23;97482.00;;;23.50
20058;BMP180;10189;49.546;7.906;2023-09-18T09:41:54;97493.00;;;23.70
20058;BMP180;10189;49.546;7.906;2023-09-18T09:44:20;97480.00;;;23.80
20058;BMP180;10189;49.546;7.906;2023-09-18T09:46:48;97476.00;;;23.60
20058;BMP180;10189;49.546;7.906;2023-09-18T09:49:15;97487.00;;;23.60
20058;BMP180;10189;49.546;7.906;2023-09-18T09:51:43;97471.00;;;23.60
20058;BMP180;10189;49.546;7.906;2023-09-18T09:54:09;97487.00;;;23.60
20058;BMP180;10189;49.546;7.906;2023-09-18T09:56:48;97495.00;;;23.40
20058;BMP180;10189;49.546;7.906;2023-09-18T09:59:18;97490.00;;;23.30
20058;BMP180;10189;49.546;7.906;2023-09-18T10:01:48;97482.00;;;23.30
20058;BMP180;10189;49.546;7.906;2023-09-18T10:04:19;97482.00;;;23.20
20058;BMP180;10189;49.546;7.906;2023-09-18T10:06:55;97496.00;;;23.40
20058;BMP180;10189;49.546;7.906;2023-09-18T10:09:26;97505.00;;;23.30
20058;BMP180;10189;49.546;7.906;2023-09-18T10:11:54;97511.00;;;23.40
20058;BMP180;10189;49.546;7.906;2023-09-18T10:14:33;97510.00;;;23.30
20058;BMP180;10189;49.546;7.906;2023-09-18T10:17:17;97499.00;;;23.30
20058;BMP180;10189;49.546;7.906;2023-09-18T10:19:54;97483.00;;;23.40
20058;BMP180;10189;49.546;7.906;2023-09-18T10:22:39;97476.00;;;23.40
20058;BMP180;10189;49.546;7.906;2023-09-18T10:25:15;97478.00;;;23.50
20058;BMP180;10189;49.546;7.906;2023-09-18T10:27:47;97485.00;;;23.70
20058;BMP180;10189;49.546;7.906;2023-09-18T10:30:20;97485.00;;;24.00
20058;BMP180;10189;49.546;7.906;2023-09-18T10:32:50;97480.00;;;23.80
20058;BMP180;10189;49.546;7.906;2023-09-18T10:35:17;97478.00;;;24.20
20058;BMP180;10189;49.546;7.906;2023-09-18T10:37:47;97493.00;;;24.40
20058;BMP180;10189;49.546;7.906;2023-09-18T10:40:14;97488.00;;;24.30
20058;BMP180;10189;49.546;7.906;2023-09-18T10:42:41;97491.00;;;24.10
20058;BMP180;10189;49.546;7.906;2023-09-18T10:45:11;97488.00;;;23.90
20058;BMP180;10189;49.546;7.906;2023-09-18T10:47:42;97477.00;;;23.60
20058;BMP180;10189;49.546;7.906;2023-09-18T10:50:11;97466.00;;;23.90
20058;BMP180;10189;49.546;7.906;2023-09-18T10:52:44;97473.00;;;24.10
20058;BMP180;10189;49.546;7.906;2023-09-18T10:55:13;97463.00;;;24.20
20058;BMP180;10189;49.546;7.906;2023-09-18T10:57:55;97457.00;;;24.60
20058;BMP180;10189;49.546;7.906;2023-09-18T11:00:25;97448.00;;;24.60
20058;BMP180;10189;49.546;7.906;2023-09-18T11:02:52;97461.00;;;24.70
20058;BMP180;10189;49.546;7.906;2023-09-18T11:05:32;97447.00;;;24.60
20058;BMP180;10189;49.546;7.906;2023-09-18T11:11:07;97469.00;;;24.30
20058;BMP180;10189;49.546;7.906;2023-09-18T11:13:52;97465.00;;;24.30
20058;BMP180;10189;49.546;7.906;2023-09-18T11:21:28;97459.00;;;24.50
20058;BMP180;10189;49.546;7.906;2023-09-18T11:24:04;97459.00;;;24.60
20058;BMP180;10189;49.546;7.906;2023-09-18T11:26:40;97462.00;;;24.70
20058;BMP180;10189;49.546;7.906;2023-09-18T11:29:09;97459.00;;;24.70
20058;BMP180;10189;49.546;7.906;2023-09-18T11:31:51;97473.00;;;24.30
20058;BMP180;10189;49.546;7.906;2023-09-18T11:34:28;97476.00;;;24.40
20058;BMP180;10189;49.546;7.906;2023-09-18T11:36:55;97484.00;;;24.30
20058;BMP180;10189;49.546;7.906;2023-09-18T11:39:40;97487.00;;;24.20
20058;BMP180;10189;49.546;7.906;2023-09-18T11:42:17;97485.00;;;24.30
20058;BMP180;10189;49.546;7.906;2023-09-18T11:44:45;97489.00;;;24.40
20058;BMP180;10189;49.546;7.906;2023-09-18T11:47:24;97486.00;;;23.90
20058;BMP180;10189;49.546;7.906;2023-09-18T11:49:56;97486.00;;;24.10
20058;BMP180;10189;49.546;7.906;2023-09-18T11:52:34;97487.00;;;24.50
20058;BMP180;10189;49.546;7.906;2023-09-18T11:55:00;97482.00;;;24.80
20058;BMP180;10189;49.546;7.906;2023-09-18T11:57:27;97491.00;;;25.10
20058;BMP180;10189;49.546;7.906;2023-09-18T11:59:54;97492.00;;;25.30
20058;BMP180;10189;49.546;7.906;2023-09-18T12:02:28;97492.00;;;25.10
20058;BMP180;10189;49.546;7.906;2023-09-18T12:05:21;97486.00;;;24.90
20058;BMP180;10189;49.546;7.906;2023-09-18T12:07:52;97482.00;;;25.10
20058;BMP180;10189;49.546;7.906;2023-09-18T12:10:20;97468.00;;;25.40
20058;BMP180;10189;49.546;7.906;2023-09-18T12:12:49;97469.00;;;25.40
20058;BMP180;10189;49.546;7.906;2023-09-18T12:15:18;97471.00;;;25.50
20058;BMP180;10189;49.546;7.906;2023-09-18T12:17:45;97471.00;;;25.30
20058;BMP180;10189;49.546;7.906;2023-09-18T12:20:16;97471.00;;;25.30
20058;BMP180;10189;49.546;7.906;2023-09-18T12:22:48;97480.00;;;25.10
20058;BMP180;10189;49.546;7.906;2023-09-18T12:25:16;97467.00;;;24.70
20058;BMP180;10189;49.546;7.906;2023-09-18T12:27:44;97473.00;;;24.70
20058;BMP180;10189;49.546;7.906;2023-09-18T12:30:12;97472.00;;;24.70
20058;BMP180;10189;49.546;7.906;2023-09-18T12:32:39;97479.00;;;24.50
20058;BMP180;10189;49.546;7.906;2023-09-18T12:35:08;97479.00;;;24.70
20058;BMP180;10189;49.546;7.906;2023-09-18T12:37:40;97480.00;;;24.90
20058;BMP180;10189;49.546;7.906;2023-09-18T12:40:20;97475.00;;;24.70
20058;BMP180;10189;49.546;7.906;2023-09-18T12:42:47;97476.00;;;24.90
20058;BMP180;10189;49.546;7.906;2023-09-18T12:45:14;97476.00;;;24.70
20058;BMP180;10189;49.546;7.906;2023-09-18T12:47:40;97477.00;;;24.70
20058;BMP180;10189;49.546;7.906;2023-09-18T12:50:07;97483.00;;;24.70
20058;BMP180;10189;49.546;7.906;2023-09-18T12:52:33;97473.00;;;25.00
20058;BMP180;10189;49.546;7.906;2023-09-18T12:54:59;97473.00;;;25.10
20058;BMP180;10189;49.546;7.906;2023-09-18T12:57:27;97467.00;;;25.30
20058;BMP180;10189;49.546;7.906;2023-09-18T12:59:54;97459.00;;;25.60
20058;BMP180;10189;49.546;7.906;2023-09-18T13:02:21;97467.00;;;25.30
20058;BMP180;10189;49.546;7.906;2023-09-18T13:04:55;97475.00;;;24.90
20058;BMP180;10189;49.546;7.906;2023-09-18T13:07:23;97465.00;;;24.80
20058;BMP180;10189;49.546;7.906;2023-09-18T13:10:00;97467.00;;;24.90
20058;BMP180;10189;49.546;7.906;2023-09-18T13:12:48;97457.00;;;25.20
20058;BMP180;10189;49.546;7.906;2023-09-18T13:15:29;97459.00;;;25.20
20058;BMP180;10189;49.546;7.906;2023-09-18T13:17:58;97454.00;;;25.40
20058;BMP180;10189;49.546;7.906;2023-09-18T13:20:29;97459.00;;;25.40
20058;BMP180;10189;49.546;7.906;2023-09-18T13:22:58;97457.00;;;25.50
20058;BMP180;10189;49.546;7.906;2023-09-18T13:25:32;97457.00;;;25.70
20058;BMP180;10189;49.546;7.906;2023-09-18T13:28:02;97442.00;;;26.00
20058;BMP180;10189;49.546;7.906;2023-09-18T13:30:30;97448.00;;;25.90
20058;BMP180;10189;49.546;7.906;2023-09-18T13:33:08;97446.00;;;26.20
20058;BMP180;10189;49.546;7.906;2023-09-18T13:35:37;97444.00;;;26.40
20058;BMP180;10189;49.546;7.906;2023-09-18T13:38:06;97444.00;;;26.20
20058;BMP180;10189;49.546;7.906;2023-09-18T13:40:35;97440.00;;;26.20
20058;BMP180;10189;49.546;7.906;2023-09-18T13:43:05;97433.00;;;26.30
20058;BMP180;10189;49.546;7.906;2023-09-18T13:45:32;97433.00;;;26.30
20058;BMP180;10189;49.546;7.906;2023-09-18T13:47:58;97434.00;;;26.30
20058;BMP180;10189;49.546;7.906;2023-09-18T13:50:25;97424.00;;;26.10
20058;BMP180;10189;49.546;7.906;2023-09-18T13:52:50;97426.00;;;26.00
20058;BMP180;10189;49.546;7.906;2023-09-18T13:55:17;97420.00;;;25.90
20058;BMP180;10189;49.546;7.906;2023-09-18T13:57:43;97420.00;;;25.50
20058;BMP180;10189;49.546;7.906;2023-09-18T14:00:10;97412.00;;;25.80
20058;BMP180;10189;49.546;7.906;2023-09-18T14:02:40;97406.00;;;25.90
20058;BMP180;10189;49.546;7.906;2023-09-18T14:05:08;97418.00;;;26.30
20058;BMP180;10189;49.546;7.906;2023-09-18T14:07:35;97410.00;;;26.10
20058;BMP180;10189;49.546;7.906;2023-09-18T14:10:01;97411.00;;;25.90
20058;BMP180;10189;49.546;7.906;2023-09-18T14:12:30;97412.00;;;25.80
20058;BMP180;10189;49.546;7.906;2023-09-18T14:14:57;97401.00;;;25.40
20058;BMP180;10189;49.546;7.906;2023-09-18T14:17:23;97408.00;;;25.60
20058;BMP180;10189;49.546;7.906;2023-09-18T14:19:49;97406.00;;;25.50
20058;BMP180;10189;49.546;7.906;2023-09-18T14:51:19;97367.00;;;25.50
20058;BMP180;10189;49.546;7.906;2023-09-18T14:59:39;97354.00;;;25.10
20058;BMP180;10189;49.546;7.906;2023-09-18T15:03:55;97358.00;;;25.20